Time;durP1;ratioP1;P1;durP2;ratioP2;P2;SDS_P1;SDS_P2;PMS_P1;PMS_P2;Temp;Humidity;BMP_temperature;BMP_pressure;BME280_temperature;BME280_humidity;BME280_pressure;Samples;Min_cycle;Max_cycle;Signal;HPM_P1;HPM_P2
2023/03/13 00:00:58;;;;;;;30.33;8.40;;;8.30;99.90;;;;;;5071998;28;20082;-60
2023/03/13 00:03:24;;;;;;;24.92;6.10;;;8.30;99.90;;;;;;5071015;28;20051;-59
2023/03/13 00:05:54;;;;;;;24.52;7.55;;;8.40;99.90;;;;;;5054811;28;20119;-59
2023/03/13 00:08:19;;;;;;;30.42;7.20;;;8.40;99.90;;;;;;5084654;28;20485;-59
2023/03/13 00:10:45;;;;;;;24.42;6.82;;;8.40;99.90;;;;;;5072907;28;20037;-59
2023/03/13 00:13:11;;;;;;;23.58;6.95;;;8.40;99.90;;;;;;5071834;28;20036;-59
2023/03/13 00:15:36;;;;;;;28.40;7.47;;;8.40;99.90;;;;;;5070711;28;20089;-59
2023/03/13 00:18:02;;;;;;;25.23;6.47;;;8.40;99.90;;;;;;5070885;28;20470;-59
2023/03/13 00:20:28;;;;;;;25.77;7.07;;;8.40;99.90;;;;;;5072151;28;20043;-59
2023/03/13 00:22:54;;;;;;;26.92;7.20;;;8.40;99.90;;;;;;5053728;28;20041;-60
2023/03/13 00:25:19;;;;;;;27.85;7.03;;;8.40;99.90;;;;;;5072010;28;20150;-59
2023/03/13 00:27:45;;;;;;;27.63;7.90;;;8.40;99.90;;;;;;5071130;28;20044;-59
2023/03/13 00:30:11;;;;;;;22.35;6.82;;;8.40;99.90;;;;;;5071126;28;20036;-59
2023/03/13 00:32:41;;;;;;;26.75;8.88;;;8.40;99.90;;;;;;5071088;28;20048;-59
2023/03/13 00:35:07;;;;;;;21.67;7.88;;;8.40;99.90;;;;;;5072108;28;20045;-59
2023/03/13 00:37:33;;;;;;;23.67;7.13;;;8.40;99.90;;;;;;5070344;28;20524;-59
2023/03/13 00:39:59;;;;;;;29.48;7.80;;;8.40;99.90;;;;;;5061092;28;20048;-59
2023/03/13 00:42:24;;;;;;;21.30;6.63;;;8.40;99.90;;;;;;5090416;28;20142;-60
2023/03/13 00:44:50;;;;;;;24.42;7.97;;;8.40;99.90;;;;;;5091303;28;20036;-59
2023/03/13 00:47:17;;;;;;;26.48;7.35;;;8.40;99.90;;;;;;5090638;28;20563;-59
2023/03/13 00:49:42;;;;;;;24.40;7.55;;;8.40;99.90;;;;;;5091054;28;20040;-59
2023/03/13 00:52:08;;;;;;;22.27;6.63;;;8.40;99.90;;;;;;5090273;28;20043;-60
2023/03/13 00:54:34;;;;;;;29.88;6.93;;;8.40;99.90;;;;;;5090824;28;20097;-59
2023/03/13 00:56:59;;;;;;;23.60;7.45;;;8.40;99.90;;;;;;5090381;28;20046;-59
2023/03/13 00:59:25;;;;;;;26.83;7.32;;;8.40;99.90;;;;;;5090516;28;20339;-59
2023/03/13 01:01:50;;;;;;;27.90;8.18;;;8.40;99.90;;;;;;5091052;28;20472;-59
2023/03/13 01:04:16;;;;;;;23.40;6.47;;;8.40;99.90;;;;;;5090427;28;20510;-60
2023/03/13 01:06:42;;;;;;;23.73;7.47;;;8.40;99.90;;;;;;5091146;28;20032;-59
2023/03/13 01:09:10;;;;;;;23.35;7.35;;;8.40;99.90;;;;;;5090333;28;20032;-59
2023/03/13 01:11:38;;;;;;;21.50;7.05;;;8.40;99.90;;;;;;5089986;28;20127;-60
2023/03/13 01:14:12;;;;;;;28.20;8.73;;;8.30;99.90;;;;;;5095152;28;20044;-59
2023/03/13 01:16:38;;;;;;;23.00;7.03;;;8.30;99.90;;;;;;5094929;28;20040;-59
2023/03/13 01:19:09;;;;;;;24.75;7.50;;;8.40;99.90;;;;;;5095345;28;20122;-59
2023/03/13 01:21:35;;;;;;;25.35;7.53;;;8.30;99.90;;;;;;5094931;28;20039;-59
2023/03/13 01:24:01;;;;;;;25.08;7.57;;;8.30;99.90;;;;;;5078362;28;20036;-59
2023/03/13 01:26:27;;;;;;;23.40;7.53;;;8.30;99.90;;;;;;5056668;28;20037;-59
2023/03/13 01:28:53;;;;;;;21.05;7.35;;;8.40;99.90;;;;;;5074325;28;20178;-60
2023/03/13 01:31:22;;;;;;;19.90;6.97;;;8.40;99.90;;;;;;5057305;28;20047;-59
2023/03/13 01:33:50;;;;;;;23.92;6.78;;;8.30;99.90;;;;;;5057351;28;20468;-59
2023/03/13 01:36:17;;;;;;;30.52;9.13;;;8.40;99.90;;;;;;5075017;28;20068;-61
2023/03/13 01:38:46;;;;;;;18.95;6.95;;;8.40;99.90;;;;;;5085705;28;20043;-59
2023/03/13 01:41:12;;;;;;;22.20;7.18;;;8.40;99.90;;;;;;5093178;28;20396;-59
2023/03/13 01:43:38;;;;;;;25.38;7.63;;;8.40;99.90;;;;;;5094624;28;20070;-59
2023/03/13 01:46:09;;;;;;;25.45;7.80;;;8.40;99.90;;;;;;5093475;28;20048;-59
2023/03/13 01:48:52;;;;;;;29.10;6.85;;;8.50;99.90;;;;;;5094499;28;20127;-60
2023/03/13 01:51:37;;;;;;;22.38;6.60;;;8.50;99.90;;;;;;5094159;28;20393;-59
2023/03/13 01:54:03;;;;;;;;;;;8.50;99.90;;;;;;5076494;28;20043;-59
2023/03/13 01:56:55;;;;;;;23.38;6.97;;;8.50;99.90;;;;;;5077344;28;19916;-60
2023/03/13 01:59:31;;;;;;;25.17;7.88;;;8.50;99.90;;;;;;5093221;28;20409;-59
2023/03/13 02:01:58;;;;;;;;;;;8.40;99.90;;;;;;5094849;28;20479;-59
2023/03/13 02:04:30;;;;;;;27.25;8.93;;;8.40;99.90;;;;;;5093409;28;19924;-59
2023/03/13 02:07:03;;;;;;;20.65;7.05;;;8.40;99.90;;;;;;5093386;28;20043;-60
2023/03/13 02:09:31;;;;;;;32.20;8.75;;;8.40;99.90;;;;;;5056613;28;20127;-59
2023/03/13 02:12:08;;;;;;;22.63;7.55;;;8.40;99.90;;;;;;5074874;28;20493;-59
2023/03/13 02:14:37;;;;;;;23.60;8.32;;;8.30;99.90;;;;;;5088763;28;20523;-59
2023/03/13 02:17:04;;;;;;;25.48;9.05;;;8.40;99.90;;;;;;5057033;28;20128;-59
2023/03/13 02:19:43;;;;;;;21.67;7.47;;;8.30;99.90;;;;;;5073755;28;20426;-59
2023/03/13 02:22:30;;;;;;;24.70;8.70;;;8.40;99.90;;;;;;5073132;28;20127;-59
2023/03/13 02:25:01;;;;;;;21.50;8.07;;;8.30;99.90;;;;;;5072195;28;20123;-59
2023/03/13 02:27:26;;;;;;;21.77;7.57;;;8.40;99.90;;;;;;5086093;28;20036;-59
2023/03/13 02:29:52;;;;;;;23.35;9.10;;;8.40;99.90;;;;;;5072737;28;20045;-59
2023/03/13 02:32:18;;;;;;;22.10;7.25;;;8.40;99.90;;;;;;5073020;28;20068;-59
2023/03/13 02:34:48;;;;;;;21.88;7.38;;;8.40;99.90;;;;;;5074351;28;20036;-59
2023/03/13 02:37:15;;;;;;;20.67;7.70;;;8.40;99.90;;;;;;5072020;28;20094;-59
2023/03/13 02:39:44;;;;;;;19.27;7.13;;;8.40;99.90;;;;;;5074525;28;20553;-59
2023/03/13 02:42:12;;;;;;;21.00;7.60;;;8.50;99.90;;;;;;5055683;28;20058;-59
2023/03/13 02:44:39;;;;;;;15.68;6.50;;;8.50;99.90;;;;;;5055782;28;20037;-59
2023/03/13 02:47:05;;;;;;;20.27;7.30;;;8.50;99.90;;;;;;5088836;28;20075;-59
2023/03/13 02:49:31;;;;;;;13.85;5.75;;;8.50;99.90;;;;;;5093645;28;20553;-59
2023/03/13 02:52:03;;;;;;;14.80;5.72;;;8.60;99.90;;;;;;5093315;28;20036;-59
2023/03/13 02:54:33;;;;;;;15.10;5.68;;;8.60;99.90;;;;;;5094214;28;20043;-59
2023/03/13 02:57:01;;;;;;;17.75;5.80;;;8.50;99.90;;;;;;5092691;28;20437;-59
2023/03/13 02:59:27;;;;;;;16.67;5.35;;;8.60;99.90;;;;;;5093050;28;20044;-59
2023/03/13 03:01:53;;;;;;;13.52;6.15;;;8.60;99.90;;;;;;5093125;28;20040;-59
2023/03/13 03:04:23;;;;;;;14.02;5.57;;;8.60;99.90;;;;;;5092897;28;20032;-59
2023/03/13 03:06:50;;;;;;;11.10;4.88;;;8.70;99.90;;;;;;5073930;28;20073;-59
2023/03/13 03:09:17;;;;;;;11.68;5.03;;;8.70;99.90;;;;;;5072229;28;20041;-59
2023/03/13 03:11:43;;;;;;;11.05;4.88;;;8.70;99.90;;;;;;5073210;28;20036;-59
2023/03/13 03:14:10;;;;;;;8.48;4.93;;;8.80;99.90;;;;;;5055450;28;20040;-59
2023/03/13 03:16:37;;;;;;;11.93;5.30;;;8.80;99.90;;;;;;5072851;28;20087;-59
2023/03/13 03:19:03;;;;;;;13.48;5.47;;;8.80;99.90;;;;;;5071122;28;20400;-59
2023/03/13 03:21:29;;;;;;;10.02;5.28;;;8.80;99.90;;;;;;5073563;28;20048;-59
2023/03/13 03:23:55;;;;;;;8.68;4.32;;;8.80;99.90;;;;;;5073903;28;20124;-59
2023/03/13 03:26:20;;;;;;;9.90;5.35;;;8.80;99.90;;;;;;5054699;28;20044;-59
2023/03/13 03:28:46;;;;;;;10.18;5.43;;;8.90;99.90;;;;;;5073763;28;20032;-59
2023/03/13 03:31:13;;;;;;;10.48;5.22;;;8.90;99.90;;;;;;5072985;28;20037;-59
2023/03/13 03:33:40;;;;;;;7.93;4.53;;;8.90;99.90;;;;;;5054624;28;20485;-59
2023/03/13 03:36:08;;;;;;;9.43;4.70;;;8.90;99.90;;;;;;5054503;28;20071;-59
2023/03/13 03:38:35;;;;;;;9.20;4.57;;;8.90;99.90;;;;;;5071586;28;20041;-59
2023/03/13 03:41:01;;;;;;;8.10;4.05;;;9.00;99.90;;;;;;5072890;28;20102;-59
2023/03/13 03:43:26;;;;;;;10.00;4.35;;;9.00;99.90;;;;;;5071794;28;20405;-59
2023/03/13 03:45:52;;;;;;;9.05;4.10;;;9.00;99.90;;;;;;5071350;28;20615;-59
2023/03/13 03:48:18;;;;;;;7.38;3.78;;;9.10;99.90;;;;;;5071620;28;20500;-59
2023/03/13 03:50:43;;;;;;;8.23;4.00;;;9.10;99.90;;;;;;5073243;28;20036;-59
2023/03/13 03:53:09;;;;;;;8.68;4.00;;;9.20;99.90;;;;;;5053850;28;20051;-59
2023/03/13 03:55:35;;;;;;;7.28;4.07;;;9.20;99.90;;;;;;5071843;28;20044;-59
2023/03/13 03:58:01;;;;;;;8.65;4.97;;;9.20;99.90;;;;;;5071563;28;20072;-59
2023/03/13 04:00:27;;;;;;;7.88;4.15;;;9.30;99.90;;;;;;5070471;28;20102;-59
2023/03/13 04:02:54;;;;;;;8.68;5.15;;;9.30;99.90;;;;;;5071671;28;20116;-59
2023/03/13 04:05:20;;;;;;;8.77;5.45;;;9.40;99.90;;;;;;5072509;28;20045;-59
2023/03/13 04:07:46;;;;;;;11.75;5.95;;;9.40;99.90;;;;;;5075576;28;20405;-59
2023/03/13 04:10:12;;;;;;;11.18;5.40;;;9.50;99.90;;;;;;5070899;28;20029;-59
2023/03/13 04:12:39;;;;;;;11.35;6.65;;;9.50;99.90;;;;;;5055063;28;20037;-59
2023/03/13 04:15:05;;;;;;;11.30;7.30;;;9.60;99.90;;;;;;5071301;28;20481;-59
2023/03/13 04:17:31;;;;;;;15.13;8.75;;;9.70;99.90;;;;;;5071563;28;20102;-59
2023/03/13 04:19:56;;;;;;;16.80;9.07;;;9.80;99.90;;;;;;5071360;28;20484;-59
2023/03/13 04:22:22;;;;;;;21.75;9.88;;;9.80;99.90;;;;;;5053329;28;20127;-59
2023/03/13 04:24:48;;;;;;;17.17;9.98;;;9.80;99.90;;;;;;5072644;28;20119;-59
2023/03/13 04:27:13;;;;;;;18.30;9.95;;;9.80;99.90;;;;;;5072816;28;20044;-59
2023/03/13 04:29:39;;;;;;;19.10;9.82;;;9.80;99.90;;;;;;5053700;28;20464;-59
2023/03/13 04:32:05;;;;;;;17.95;10.63;;;9.80;99.90;;;;;;5071810;28;20032;-59
2023/03/13 04:34:31;;;;;;;20.92;11.60;;;9.80;99.90;;;;;;5071209;28;20405;-59
2023/03/13 04:36:57;;;;;;;18.60;11.20;;;9.90;99.90;;;;;;5071706;28;20049;-59
2023/03/13 04:39:24;;;;;;;25.42;10.48;;;9.90;99.90;;;;;;5071788;28;20037;-59
2023/03/13 04:41:53;;;;;;;23.45;10.95;;;9.90;99.90;;;;;;5080126;28;20496;-59
2023/03/13 04:44:20;;;;;;;21.58;9.52;;;9.90;99.90;;;;;;5091890;28;20047;-59
2023/03/13 04:46:45;;;;;;;23.45;10.27;;;10.00;99.90;;;;;;5078776;28;20430;-59
2023/03/13 04:49:16;;;;;;;17.13;10.38;;;10.00;99.90;;;;;;5052537;28;20040;-59
2023/03/13 04:51:43;;;;;;;22.17;11.98;;;10.00;99.90;;;;;;5072538;28;20044;-59
2023/03/13 04:54:10;;;;;;;22.25;10.00;;;10.00;99.90;;;;;;5070371;28;20048;-59
2023/03/13 04:56:36;;;;;;;24.05;9.32;;;10.10;99.90;;;;;;5070218;28;20098;-59
2023/03/13 04:59:01;;;;;;;19.73;9.93;;;10.30;99.90;;;;;;5070883;28;20080;-59
2023/03/13 05:01:27;;;;;;;22.48;10.20;;;10.40;99.90;;;;;;5071351;28;20051;-59
2023/03/13 05:03:53;;;;;;;16.30;7.95;;;10.40;99.90;;;;;;5053732;28;20071;-59
2023/03/13 05:06:19;;;;;;;15.45;7.68;;;10.50;99.90;;;;;;5070505;28;20123;-59
2023/03/13 05:08:44;;;;;;;20.95;8.00;;;10.60;99.90;;;;;;5070818;28;20040;-59
2023/03/13 05:11:11;;;;;;;21.40;7.53;;;10.60;99.90;;;;;;5070632;28;20066;-59
2023/03/13 05:13:36;;;;;;;19.00;7.18;;;10.60;99.90;;;;;;5071902;28;20036;-59
2023/03/13 05:16:02;;;;;;;24.45;8.15;;;10.60;99.90;;;;;;5076715;28;20036;-59
2023/03/13 05:18:28;;;;;;;14.38;6.32;;;10.60;99.90;;;;;;5073003;28;20496;-59
2023/03/13 05:20:54;;;;;;;14.05;5.68;;;10.60;99.90;;;;;;5090883;28;20062;-59
2023/03/13 05:23:19;;;;;;;10.95;5.57;;;10.70;99.90;;;;;;5090141;28;20118;-59
2023/03/13 05:25:45;;;;;;;17.83;5.97;;;10.80;99.90;;;;;;5091262;28;20107;-59
2023/03/13 05:28:11;;;;;;;13.75;6.32;;;10.80;99.90;;;;;;5089904;28;22146;-59
2023/03/13 05:30:36;;;;;;;13.27;5.15;;;10.80;99.90;;;;;;5091061;28;20494;-59
2023/03/13 05:33:03;;;;;;;14.93;5.93;;;10.80;99.90;;;;;;5090999;28;20051;-59
2023/03/13 05:35:29;;;;;;;18.25;5.70;;;10.90;99.90;;;;;;5091583;28;20036;-58
2023/03/13 05:37:54;;;;;;;13.23;5.35;;;10.90;99.90;;;;;;5092036;28;20115;-59
2023/03/13 05:40:20;;;;;;;13.32;5.57;;;10.90;99.90;;;;;;5072351;28;20249;-59
2023/03/13 05:42:46;;;;;;;12.52;5.22;;;11.00;99.90;;;;;;5090508;28;20064;-59
2023/03/13 05:45:12;;;;;;;17.98;5.82;;;10.90;99.90;;;;;;5086820;28;20036;-59
2023/03/13 05:47:38;;;;;;;17.95;5.93;;;10.90;99.90;;;;;;5092224;28;20046;-59
2023/03/13 05:50:06;;;;;;;18.75;5.57;;;10.90;99.90;;;;;;5095185;28;20115;-59
2023/03/13 05:52:32;;;;;;;12.90;5.78;;;10.90;99.90;;;;;;5098490;28;20078;-59
2023/03/13 05:54:58;;;;;;;17.73;6.75;;;11.00;99.90;;;;;;5073683;28;20485;-59
2023/03/13 05:57:24;;;;;;;19.80;6.60;;;10.90;99.90;;;;;;5091290;28;20038;-59
2023/03/13 05:59:50;;;;;;;14.75;5.95;;;10.90;99.90;;;;;;5088110;28;20536;-59
2023/03/13 06:02:16;;;;;;;16.23;5.38;;;10.90;99.90;;;;;;5092236;28;20040;-59
2023/03/13 06:04:41;;;;;;;17.23;5.60;;;10.90;99.90;;;;;;5093988;28;20038;-59
2023/03/13 06:07:07;;;;;;;18.48;6.47;;;10.90;99.90;;;;;;5092804;28;20036;-59
2023/03/13 06:09:33;;;;;;;18.60;6.47;;;10.90;99.90;;;;;;5094119;28;20044;-59
2023/03/13 06:11:59;;;;;;;19.80;7.05;;;10.90;99.90;;;;;;5094295;28;20051;-59
2023/03/13 06:14:25;;;;;;;17.48;6.60;;;11.00;99.90;;;;;;5094095;28;20044;-59
2023/03/13 06:16:52;;;;;;;19.35;6.53;;;11.00;99.90;;;;;;5075911;28;20401;-59
2023/03/13 06:19:18;;;;;;;19.70;6.70;;;11.00;99.90;;;;;;5073386;28;20127;-59
2023/03/13 06:21:44;;;;;;;15.93;7.03;;;11.00;99.90;;;;;;5072848;28;20568;-59
2023/03/13 06:24:09;;;;;;;22.10;6.47;;;11.00;99.90;;;;;;5073270;28;20040;-59
2023/03/13 06:26:35;;;;;;;20.60;7.03;;;11.00;99.90;;;;;;5073263;28;20064;-59
2023/03/13 06:29:00;;;;;;;14.70;5.85;;;11.10;99.90;;;;;;5072997;28;20126;-59
2023/03/13 06:31:26;;;;;;;13.57;5.57;;;11.10;99.90;;;;;;5074497;28;20043;-59
2023/03/13 06:33:53;;;;;;;16.50;5.85;;;11.10;99.90;;;;;;5073776;28;20128;-59
2023/03/13 06:36:19;;;;;;;14.68;5.32;;;11.10;99.90;;;;;;5073341;28;20401;-59
2023/03/13 06:38:45;;;;;;;16.05;5.38;;;11.10;99.90;;;;;;5073389;28;20391;-59
2023/03/13 06:41:11;;;;;;;18.48;5.38;;;11.10;99.90;;;;;;5073653;28;20131;-59
2023/03/13 06:43:39;;;;;;;12.98;5.72;;;11.10;99.90;;;;;;5072557;28;20044;-59
2023/03/13 06:46:05;;;;;;;17.55;5.55;;;11.30;99.90;;;;;;5072710;28;20115;-59
2023/03/13 06:48:31;;;;;;;17.17;6.40;;;11.20;99.90;;;;;;5055725;28;20504;-59
2023/03/13 06:50:57;;;;;;;20.40;5.93;;;11.30;99.90;;;;;;5073259;28;20044;-59
2023/03/13 06:53:22;;;;;;;16.50;5.68;;;11.30;99.90;;;;;;5107044;28;20044;-59
2023/03/13 06:55:48;;;;;;;17.80;5.63;;;11.40;99.90;;;;;;5096263;28;20124;-59
2023/03/13 06:58:14;;;;;;;21.00;5.32;;;11.30;99.90;;;;;;5089855;28;20362;-59
2023/03/13 07:00:42;;;;;;;15.38;5.05;;;11.40;99.90;;;;;;5086015;28;20056;-59
2023/03/13 07:03:13;;;;;;;14.93;5.32;;;11.40;99.90;;;;;;5067463;28;20427;-59
2023/03/13 07:05:38;;;;;;;14.18;4.55;;;11.50;99.90;;;;;;5069198;28;20040;-59
2023/03/13 07:08:04;;;;;;;16.02;6.10;;;11.50;99.90;;;;;;5086468;28;20036;-58
2023/03/13 07:10:30;;;;;;;21.80;5.82;;;11.50;99.90;;;;;;5088875;28;20052;-59
2023/03/13 07:12:56;;;;;;;16.92;4.93;;;11.50;99.90;;;;;;5091645;28;20039;-59
2023/03/13 07:15:22;;;;;;;19.27;6.00;;;11.50;99.90;;;;;;5095196;28;20093;-59
2023/03/13 07:17:48;;;;;;;14.40;4.68;;;11.50;99.90;;;;;;5090928;28;20040;-59
2023/03/13 07:20:13;;;;;;;17.80;5.70;;;11.50;99.90;;;;;;5095194;28;20046;-59
2023/03/13 07:22:39;;;;;;;19.38;5.45;;;11.50;99.90;;;;;;5102775;28;20489;-59
2023/03/13 07:25:05;;;;;;;15.25;5.38;;;11.50;99.90;;;;;;5085440;28;20101;-59
2023/03/13 07:27:31;;;;;;;13.02;5.10;;;11.40;99.90;;;;;;5084420;28;20166;-59
2023/03/13 07:29:57;;;;;;;11.57;4.97;;;11.40;99.90;;;;;;5086736;28;20161;-59
2023/03/13 07:32:23;;;;;;;11.55;4.40;;;11.40;99.90;;;;;;5085441;28;20045;-59
2023/03/13 07:34:49;;;;;;;11.73;4.45;;;11.50;99.90;;;;;;5086801;28;20056;-59
2023/03/13 07:37:15;;;;;;;17.48;5.65;;;11.40;99.90;;;;;;5084874;28;20043;-59
2023/03/13 07:39:42;;;;;;;13.23;4.68;;;11.40;99.90;;;;;;5084468;28;20046;-59
2023/03/13 07:42:11;;;;;;;15.85;5.68;;;11.40;99.90;;;;;;5086891;28;20390;-59
2023/03/13 07:44:37;;;;;;;20.38;4.65;;;11.40;99.90;;;;;;5090369;28;20481;-60
2023/03/13 07:47:03;;;;;;;14.65;4.72;;;11.40;99.90;;;;;;5098540;28;20040;-59
2023/03/13 07:49:29;;;;;;;14.75;4.65;;;11.40;99.90;;;;;;5092941;28;20047;-59
2023/03/13 07:51:54;;;;;;;17.65;5.00;;;11.50;99.90;;;;;;5086540;28;20055;-59
2023/03/13 07:54:20;;;;;;;16.83;4.97;;;11.40;99.90;;;;;;5095762;28;20044;-59
2023/03/13 07:56:46;;;;;;;14.82;4.78;;;11.50;99.90;;;;;;5089270;28;20040;-59
2023/03/13 07:59:11;;;;;;;16.95;4.85;;;11.50;99.90;;;;;;5095711;28;20081;-59
2023/03/13 08:01:37;;;;;;;18.00;4.70;;;11.50;99.90;;;;;;5092822;28;20040;-59
2023/03/13 08:04:04;;;;;;;14.02;3.78;;;11.50;99.90;;;;;;5086661;28;20044;-59
2023/03/13 08:06:31;;;;;;;9.60;3.72;;;11.50;99.90;;;;;;5082447;28;20042;-59
2023/03/13 08:08:58;;;;;;;15.13;3.90;;;11.60;99.90;;;;;;5077107;28;20117;-59
2023/03/13 08:11:25;;;;;;;13.18;3.90;;;11.60;99.90;;;;;;5088605;28;20075;-59
2023/03/13 08:13:52;;;;;;;14.88;3.92;;;11.60;99.90;;;;;;5090348;28;20478;-60
2023/03/13 08:16:21;;;;;;;18.98;5.13;;;11.60;99.90;;;;;;5091681;28;20043;-59
2023/03/13 08:18:49;;;;;;;14.35;3.60;;;11.60;99.90;;;;;;5083016;28;20052;-59
2023/03/13 08:21:17;;;;;;;9.95;4.55;;;11.60;99.90;;;;;;5077208;28;20036;-59
2023/03/13 08:23:44;;;;;;;17.52;4.57;;;11.70;99.90;;;;;;5092291;28;20042;-59
2023/03/13 08:26:15;;;;;;;16.48;4.82;;;11.70;99.90;;;;;;5098581;28;20493;-59
2023/03/13 08:28:42;;;;;;;13.70;4.20;;;11.80;99.90;;;;;;5086570;28;20040;-59
2023/03/13 08:31:17;;;;;;;13.15;3.97;;;11.90;99.90;;;;;;5108680;28;20047;-59
2023/03/13 08:33:45;;;;;;;11.00;4.43;;;12.10;99.90;;;;;;5096542;28;20093;-59
2023/03/13 08:36:14;;;;;;;10.00;3.75;;;12.20;99.90;;;;;;5053342;28;20044;-59
2023/03/13 08:38:41;;;;;;;15.00;4.07;;;12.20;99.90;;;;;;5070514;28;20044;-59
2023/03/13 08:41:07;;;;;;;14.60;3.65;;;12.30;99.90;;;;;;5085950;28;20412;-59
2023/03/13 08:43:33;;;;;;;13.23;4.30;;;12.30;99.90;;;;;;5091522;28;20298;-59
2023/03/13 08:45:59;;;;;;;11.07;3.20;;;12.40;99.90;;;;;;5091104;28;20373;-59
2023/03/13 08:48:25;;;;;;;10.57;3.20;;;12.40;99.90;;;;;;5089910;28;20062;-60
2023/03/13 08:51:06;;;;;;;15.10;4.13;;;12.50;99.90;;;;;;5091206;28;20071;-59
2023/03/13 08:53:32;;;;;;;10.45;3.60;;;12.50;99.90;;;;;;5074351;28;20040;-59
2023/03/13 08:55:58;;;;;;;9.57;3.67;;;12.50;99.90;;;;;;5090549;28;20119;-59
2023/03/13 08:58:24;;;;;;;9.63;3.72;;;12.50;99.90;;;;;;5073853;28;20148;-59
2023/03/13 09:00:50;;;;;;;9.10;3.42;;;12.60;99.90;;;;;;5092207;28;20076;-59
2023/03/13 09:03:16;;;;;;;7.93;2.58;;;12.70;99.90;;;;;;5090961;28;20032;-59
2023/03/13 09:05:42;;;;;;;11.82;3.63;;;12.70;99.90;;;;;;5091171;28;20044;-59
2023/03/13 09:08:08;;;;;;;7.75;2.83;;;12.80;99.90;;;;;;5090438;28;20047;-59
2023/03/13 09:10:35;;;;;;;11.77;3.47;;;12.80;99.90;;;;;;5091954;28;20036;-59
2023/03/13 09:13:01;;;;;;;10.60;3.10;;;12.70;99.90;;;;;;5091108;28;20040;-60
2023/03/13 09:15:27;;;;;;;10.75;3.28;;;12.60;99.90;;;;;;5091867;28;20396;-59
2023/03/13 09:17:53;;;;;;;11.02;2.83;;;12.50;99.90;;;;;;5090146;28;20040;-59
2023/03/13 09:20:19;;;;;;;12.80;4.18;;;12.40;99.90;;;;;;5090354;28;20036;-59
2023/03/13 09:22:45;;;;;;;11.90;3.38;;;12.40;99.90;;;;;;5090974;28;20036;-60
2023/03/13 09:25:12;;;;;;;11.18;3.63;;;12.40;99.90;;;;;;5089350;28;20122;-59
2023/03/13 09:27:38;;;;;;;13.93;3.88;;;12.30;99.90;;;;;;5092174;28;20472;-60
2023/03/13 09:30:04;;;;;;;14.27;3.70;;;12.40;99.90;;;;;;5091739;28;20082;-59
2023/03/13 09:32:30;;;;;;;17.23;4.70;;;12.40;99.90;;;;;;5090152;28;20418;-60
2023/03/13 09:34:55;;;;;;;12.77;4.18;;;12.40;99.90;;;;;;5094016;28;20043;-59
2023/03/13 09:37:21;;;;;;;11.63;4.35;;;12.40;99.90;;;;;;5094611;28;20040;-60
2023/03/13 09:39:50;;;;;;;15.50;3.47;;;12.40;99.90;;;;;;5095047;28;20040;-59
2023/03/13 09:42:19;;;;;;;11.27;3.28;;;12.40;99.90;;;;;;5093836;28;20064;-59
2023/03/13 09:45:01;;;;;;;16.80;4.72;;;12.30;99.90;;;;;;5093770;28;20043;-59
2023/03/13 09:47:44;;;;;;;10.40;3.60;;;12.20;99.90;;;;;;5095559;28;20044;-59
2023/03/13 09:50:31;;;;;;;16.23;4.13;;;12.20;99.90;;;;;;5095212;28;20035;-59
2023/03/13 09:53:03;;;;;;;11.27;4.10;;;12.30;99.90;;;;;;5094895;28;20032;-59
2023/03/13 09:55:35;;;;;;;14.93;4.10;;;12.50;99.90;;;;;;5094222;28;20039;-59
2023/03/13 09:58:18;;;;;;;9.95;3.78;;;12.60;99.90;;;;;;5094341;28;20040;-59
2023/03/13 10:00:57;;;;;;;10.60;3.67;;;12.80;99.90;;;;;;5093809;28;20044;-59
2023/03/13 10:03:28;;;;;;;10.95;3.35;;;12.90;99.90;;;;;;5094090;28;20365;-59
2023/03/13 10:06:02;;;;;;;13.85;5.68;;;13.00;99.90;;;;;;5093741;28;20426;-59
2023/03/13 10:08:33;;;;;;;12.23;4.25;;;13.10;99.90;;;;;;5093786;28;20048;-59
2023/03/13 10:11:27;;;;;;;12.77;3.35;;;13.10;99.90;;;;;;5095504;28;20070;-60
2023/03/13 10:14:19;;;;;;;14.48;4.53;;;13.30;99.90;;;;;;5093389;28;20126;-59
2023/03/13 10:16:58;;;;;;;12.82;3.75;;;13.30;99.90;;;;;;5093960;28;20048;-59
2023/03/13 10:19:33;;;;;;;13.15;4.00;;;13.20;99.90;;;;;;5093425;28;20056;-59
2023/03/13 10:22:03;;;;;;;15.63;3.85;;;13.30;99.90;;;;;;5076965;28;20135;-59
2023/03/13 10:24:38;;;;;;;17.25;4.82;;;13.30;99.90;;;;;;5095091;28;20101;-59
2023/03/13 10:27:03;;;;;;;13.88;4.65;;;13.40;99.90;;;;;;5093020;28;20051;-59
2023/03/13 10:29:30;;;;;;;12.35;4.25;;;13.50;99.90;;;;;;5094847;28;20568;-59
2023/03/13 10:32:01;;;;;;;18.92;4.70;;;13.60;99.90;;;;;;5093887;28;20040;-59
2023/03/13 10:34:53;;;;;;;16.45;4.22;;;13.60;99.90;;;;;;5075562;28;20047;-59
2023/03/13 10:37:24;;;;;;;15.57;4.00;;;13.60;99.90;;;;;;5083797;28;20441;-60
2023/03/13 10:39:51;;;;;;;17.05;4.75;;;13.60;99.90;;;;;;5095021;28;20036;-59
2023/03/13 10:42:27;;;;;;;17.38;5.03;;;13.70;99.90;;;;;;5091891;28;20138;-59
2023/03/13 10:45:00;;;;;;;16.75;4.55;;;13.70;99.90;;;;;;5094014;28;20127;-60
2023/03/13 10:47:31;;;;;;;18.05;5.00;;;13.70;99.90;;;;;;5094371;28;20044;-59
2023/03/13 10:49:58;;;;;;;16.77;4.65;;;13.70;99.90;;;;;;5092971;28;20079;-59
2023/03/13 10:52:50;;;;;;;15.68;4.78;;;13.70;99.90;;;;;;5093043;28;20039;-60
2023/03/13 10:55:19;;;;;;;16.40;5.90;;;13.70;99.90;;;;;;5088483;28;20052;-59
2023/03/13 10:58:03;;;;;;;18.10;4.47;;;13.70;99.90;;;;;;5093742;28;20175;-60
2023/03/13 11:00:37;;;;;;;15.03;4.33;;;13.70;99.90;;;;;;5092691;28;20511;-59
2023/03/13 11:03:16;;;;;;;14.10;3.60;;;13.70;99.90;;;;;;5093289;28;20266;-59
2023/03/13 11:05:43;;;;;;;15.75;3.85;;;13.70;99.90;;;;;;5076455;28;20047;-59
2023/03/13 11:08:23;;;;;;;13.45;4.18;;;13.80;99.90;;;;;;5075777;28;20126;-59
2023/03/13 11:10:59;;;;;;;23.55;5.75;;;13.90;99.90;;;;;;5092200;28;20040;-59
2023/03/13 11:13:29;;;;;;;15.38;4.45;;;14.00;99.90;;;;;;5092540;28;20036;-60
2023/03/13 11:15:59;;;;;;;15.43;4.70;;;14.20;99.90;;;;;;5091976;28;20039;-59
2023/03/13 11:18:38;;;;;;;15.60;4.20;;;14.20;99.90;;;;;;5093443;28;20127;-59
2023/03/13 11:21:05;;;;;;;18.55;5.18;;;14.10;99.90;;;;;;5093913;28;20089;-60
2023/03/13 11:23:39;;;;;;;14.65;3.70;;;14.10;99.90;;;;;;5091771;28;20055;-59
2023/03/13 11:26:25;;;;;;;16.83;5.18;;;14.00;99.90;;;;;;5092412;28;20538;-59
2023/03/13 11:29:00;;;;;;;19.38;3.95;;;14.00;99.90;;;;;;5092539;28;20040;-60
2023/03/13 11:31:46;;;;;;;11.65;4.35;;;14.00;99.90;;;;;;5092813;28;20040;-59
2023/03/13 11:34:25;;;;;;;16.70;4.55;;;14.00;99.90;;;;;;5092213;28;20499;-60
2023/03/13 11:37:01;;;;;;;10.35;3.35;;;14.10;99.90;;;;;;5091583;28;20040;-60
2023/03/13 11:39:33;;;;;;;14.55;4.35;;;14.10;99.90;;;;;;5092212;28;20050;-60
2023/03/13 11:42:09;;;;;;;12.27;3.78;;;14.10;99.90;;;;;;5093604;28;20059;-60
2023/03/13 11:45:05;;;;;;;17.77;4.30;;;14.10;99.90;;;;;;5091477;28;20122;-59
2023/03/13 11:47:45;;;;;;;13.45;3.67;;;14.10;99.90;;;;;;5092129;28;20040;-59
2023/03/13 11:50:14;;;;;;;14.52;4.55;;;14.00;99.90;;;;;;5074784;28;20492;-59
2023/03/13 11:52:57;;;;;;;11.65;3.83;;;13.90;99.90;;;;;;5091589;28;20075;-59
2023/03/13 11:55:41;;;;;;;16.40;3.85;;;13.90;99.90;;;;;;5091663;28;20043;-60
2023/03/13 11:58:34;;;;;;;14.73;3.72;;;13.80;99.90;;;;;;5073675;28;20052;-60
2023/03/13 12:01:17;;;;;;;16.15;4.70;;;13.80;99.90;;;;;;5075214;28;20036;-59
2023/03/13 12:04:17;;;;;;;17.35;4.05;;;13.80;99.90;;;;;;5093357;28;20081;-59
2023/03/13 12:06:59;;;;;;;20.70;5.85;;;13.80;99.90;;;;;;5091424;28;20629;-59
2023/03/13 12:09:38;;;;;;;10.80;3.35;;;13.90;99.90;;;;;;5091717;28;20102;-59
2023/03/13 12:12:19;;;;;;;19.02;4.63;;;14.00;99.90;;;;;;5090786;28;20054;-60
2023/03/13 12:15:03;;;;;;;22.88;6.10;;;14.00;99.90;;;;;;5092958;28;20044;-59
2023/03/13 12:17:35;;;;;;;17.25;5.88;;;14.10;99.90;;;;;;5091456;28;20122;-59
2023/03/13 12:20:18;;;;;;;26.02;10.07;;;14.10;99.90;;;;;;5090505;28;20093;-59
2023/03/13 12:23:06;;;;;;;18.25;6.03;;;13.90;99.90;;;;;;5091580;28;20069;-59
2023/03/13 12:26:14;;;;;;;21.40;5.78;;;13.90;99.90;;;;;;5092163;28;20055;-59
2023/03/13 12:28:44;;;;;;;21.88;6.32;;;13.80;99.90;;;;;;5064099;28;20467;-60
2023/03/13 12:31:21;;;;;;;23.33;4.90;;;13.70;99.90;;;;;;5091030;28;20040;-60
2023/03/13 12:34:15;;;;;;;23.30;6.93;;;13.60;99.90;;;;;;5092072;28;20123;-59
2023/03/13 12:36:49;;;;;;;18.52;4.65;;;13.40;99.90;;;;;;5091469;28;20040;-59
2023/03/13 12:39:34;;;;;;;17.77;4.40;;;13.40;99.90;;;;;;5092408;28;20043;-60
2023/03/13 12:42:32;;;;;;;16.45;5.15;;;13.40;99.90;;;;;;5090322;28;20066;-60
2023/03/13 12:44:58;;;;;;;16.13;5.03;;;13.60;99.90;;;;;;5092684;28;20075;-61
2023/03/13 12:47:49;;;;;;;19.02;4.80;;;13.70;99.90;;;;;;5089859;28;20123;-60
2023/03/13 12:50:29;;;;;;;18.10;5.15;;;13.70;99.90;;;;;;5090776;28;20573;-60
2023/03/13 12:52:55;;;;;;;17.38;4.93;;;13.80;99.90;;;;;;5091484;28;20075;-60